Time;durP1;ratioP1;P1;durP2;ratioP2;P2;SDS_P1;SDS_P2;PMS_P1;PMS_P2;Temp;Humidity;BMP_temperature;BMP_pressure;BME280_temperature;BME280_humidity;BME280_pressure;Samples;Min_cycle;Max_cycle;Signal;HPM_P1;HPM_P2
2022/10/15 00:01:14;;;;;;;45.20;25.67;;;11.90;99.90;13.00;96821.00;;;;5026032;28;20245;-65
2022/10/15 00:04:05;;;;;;;35.37;26.90;;;11.90;99.90;13.00;96834.00;;;;5027768;28;20208;-65
2022/10/15 00:06:53;;;;;;;39.37;28.43;;;11.80;99.90;13.00;96822.00;;;;5028142;28;20261;-65
2022/10/15 00:09:42;;;;;;;41.87;29.40;;;11.70;99.90;12.80;96821.00;;;;5028619;28;20608;-65
2022/10/15 00:12:31;;;;;;;40.47;28.40;;;11.70;99.90;12.80;96821.00;;;;5028118;28;20240;-64
2022/10/15 00:15:20;;;;;;;51.23;28.60;;;11.70;99.90;12.70;96816.00;;;;5027108;28;20259;-64
2022/10/15 00:18:08;;;;;;;44.63;31.63;;;11.60;99.90;12.50;96820.00;;;;5024318;28;20232;-65
2022/10/15 00:20:58;;;;;;;46.03;29.80;;;11.60;99.90;12.50;96804.00;;;;5029143;28;20225;-64
2022/10/15 00:23:48;;;;;;;56.23;32.87;;;11.50;99.90;12.50;96817.00;;;;5017612;28;20212;-64
2022/10/15 00:26:37;;;;;;;46.97;30.80;;;11.50;99.90;12.50;96810.00;;;;5020454;28;20273;-65
2022/10/15 00:29:25;;;;;;;45.53;29.93;;;11.50;99.90;12.40;96815.00;;;;5028682;28;20229;-65
2022/10/15 00:32:14;;;;;;;49.43;30.43;;;11.40;99.90;12.10;96814.00;;;;5029244;28;20228;-65
2022/10/15 00:35:03;;;;;;;45.13;28.93;;;11.30;99.90;11.90;96810.00;;;;5028864;28;20234;-65
2022/10/15 00:37:53;;;;;;;43.87;29.13;;;11.10;99.90;11.90;96800.00;;;;5028771;28;20288;-64
2022/10/15 00:40:42;;;;;;;48.87;30.87;;;11.00;99.90;11.80;96796.00;;;;5027116;28;20323;-65
2022/10/15 00:43:43;;;;;;;47.90;31.77;;;11.00;99.90;12.00;96795.00;;;;5029740;28;20291;-64
2022/10/15 00:46:35;;;;;;;54.87;31.30;;;10.90;99.90;12.00;96801.00;;;;5028296;28;20196;-65
2022/10/15 00:49:27;;;;;;;40.77;30.57;;;10.90;99.90;11.60;96796.00;;;;5026663;28;20732;-65
2022/10/15 00:52:21;;;;;;;49.53;31.00;;;10.90;99.90;11.60;96800.00;;;;5029127;28;20299;-65
2022/10/15 00:55:15;;;;;;;47.60;31.50;;;10.80;99.90;11.60;96799.00;;;;5029797;28;20214;-65
2022/10/15 00:58:08;;;;;;;51.27;30.83;;;10.70;99.90;11.90;96789.00;;;;5030798;28;20636;-64
2022/10/15 01:00:57;;;;;;;47.27;30.00;;;10.60;99.90;12.10;96791.00;;;;5023205;28;20734;-64
2022/10/15 01:03:46;;;;;;;51.23;34.67;;;10.70;99.90;12.10;96782.00;;;;5025120;28;20638;-65
2022/10/15 01:06:36;;;;;;;51.23;33.87;;;10.70;99.90;12.10;96783.00;;;;5029381;28;20975;-65
2022/10/15 01:09:25;;;;;;;47.77;31.10;;;10.80;99.90;12.10;96776.00;;;;5029960;28;20255;-64
2022/10/15 01:12:26;;;;;;;47.47;31.77;;;10.80;99.90;12.00;96778.00;;;;5030822;28;20723;-64
2022/10/15 01:15:23;;;;;;;51.67;32.90;;;10.80;99.90;12.20;96772.00;;;;5027920;28;20305;-65
2022/10/15 01:18:18;;;;;;;50.13;33.60;;;10.80;99.90;12.30;96770.00;;;;5032235;28;20311;-65
2022/10/15 01:21:15;;;;;;;48.07;31.87;;;10.90;99.90;12.20;96758.00;;;;5030587;28;20600;-65
2022/10/15 01:24:50;;;;;;;48.83;29.87;;;10.90;99.90;12.10;96769.00;;;;5031880;28;20201;-64
2022/10/15 01:27:43;;;;;;;44.17;31.57;;;10.90;99.90;12.10;96768.00;;;;5029023;28;20201;-65
2022/10/15 01:30:39;;;;;;;45.10;30.47;;;10.90;99.90;12.10;96780.00;;;;5031524;28;20226;-64
2022/10/15 01:33:37;;;;;;;50.60;32.90;;;10.90;99.90;12.10;96758.00;;;;5030706;28;20193;-64
2022/10/15 01:36:38;;;;;;;53.33;34.97;;;10.90;99.90;12.20;96754.00;;;;5018862;28;20271;-65
2022/10/15 01:39:32;;;;;;;47.63;32.70;;;10.90;99.90;12.20;96758.00;;;;5030237;28;20260;-64
2022/10/15 01:42:28;;;;;;;53.23;35.43;;;11.00;99.90;12.40;96758.00;;;;5030572;28;20251;-65
2022/10/15 01:45:24;;;;;;;49.30;33.97;;;11.00;99.90;12.50;96750.00;;;;5030851;28;20212;-66
2022/10/15 01:48:16;;;;;;;50.53;32.80;;;11.10;99.90;12.40;96751.00;;;;5030651;28;20253;-66
2022/10/15 01:51:06;;;;;;;49.67;33.40;;;11.10;99.90;12.20;96741.00;;;;5033793;23;20327;-71
2022/10/15 01:53:56;;;;;;;48.47;33.17;;;11.10;99.90;12.10;96744.00;;;;5010241;28;20206;-71
2022/10/15 01:56:48;;;;;;;51.07;31.27;;;11.00;99.90;12.20;96752.00;;;;5011885;28;20221;-71
2022/10/15 01:59:37;;;;;;;52.23;32.03;;;11.00;99.90;12.30;96741.00;;;;5011052;28;20237;-71
2022/10/15 02:02:26;;;;;;;49.90;33.80;;;11.00;99.90;12.50;96739.00;;;;5010448;28;20692;-71
2022/10/15 02:05:20;;;;;;;46.40;31.40;;;11.00;99.90;12.50;96733.00;;;;5010501;28;20206;-71
2022/10/15 02:08:19;;;;;;;48.47;34.03;;;11.10;99.90;12.60;96728.00;;;;5011155;28;20201;-70
2022/10/15 02:11:12;;;;;;;44.03;31.10;;;11.10;99.90;12.60;96727.00;;;;5011621;28;20234;-71
2022/10/15 02:14:08;;;;;;;53.60;33.63;;;11.10;99.90;12.60;96723.00;;;;5007181;28;20248;-71
2022/10/15 02:17:03;;;;;;;44.43;30.27;;;11.20;99.90;12.60;96716.00;;;;5000908;28;20209;-71
2022/10/15 02:19:56;;;;;;;47.93;31.47;;;11.20;99.90;12.60;96731.00;;;;5011050;28;20217;-71
2022/10/15 02:22:58;;;;;;;44.97;31.23;;;11.20;99.90;12.50;96713.00;;;;5007973;28;20212;-71
2022/10/15 02:25:50;;;;;;;50.20;31.17;;;11.20;99.90;12.40;96703.00;;;;5010849;28;20221;-71
2022/10/15 02:28:42;;;;;;;47.37;32.33;;;11.20;99.90;12.50;96693.00;;;;5010906;28;20224;-71
2022/10/15 02:31:34;;;;;;;51.20;33.50;;;11.20;99.90;12.60;96697.00;;;;5010375;28;20222;-70
2022/10/15 02:34:28;;;;;;;47.37;31.90;;;11.20;99.90;12.70;96693.00;;;;5012002;28;20257;-71
2022/10/15 02:37:21;;;;;;;50.90;32.00;;;11.30;99.90;12.70;96686.00;;;;5010472;28;20902;-71
2022/10/15 02:40:12;;;;;;;50.53;32.87;;;11.30;99.90;12.50;96687.00;;;;5010889;28;20276;-71
2022/10/15 02:43:05;;;;;;;42.93;32.13;;;11.30;99.90;12.50;96678.00;;;;5010600;28;20198;-71
2022/10/15 02:45:54;;;;;;;44.30;31.20;;;11.30;99.90;12.30;96676.00;;;;5010050;28;20272;-71
2022/10/15 02:48:42;;;;;;;49.27;31.30;;;11.30;99.90;12.40;96680.00;;;;5010129;28;20202;-71
2022/10/15 02:51:32;;;;;;;47.53;30.57;;;11.20;99.90;12.60;96682.00;;;;5009336;28;20280;-71
2022/10/15 02:54:21;;;;;;;54.40;33.47;;;11.20;99.90;12.60;96671.00;;;;5010789;28;20198;-71
2022/10/15 02:57:11;;;;;;;48.97;34.30;;;11.30;99.90;12.70;96670.00;;;;5011386;28;20209;-70
2022/10/15 02:59:59;;;;;;;48.20;32.07;;;11.30;99.90;12.60;96660.00;;;;5010488;28;20206;-71
2022/10/15 03:02:48;;;;;;;49.40;31.10;;;11.30;99.90;12.60;96665.00;;;;5008738;28;20217;-71
2022/10/15 03:05:37;;;;;;;43.40;30.63;;;11.30;99.90;12.40;96658.00;;;;5008022;28;20206;-70
2022/10/15 03:08:26;;;;;;;50.80;33.30;;;11.30;99.90;12.40;96659.00;;;;5009296;28;20206;-70
2022/10/15 03:11:14;;;;;;;59.17;34.30;;;11.20;99.90;12.50;96657.00;;;;5010328;28;20218;-70
2022/10/15 03:14:04;;;;;;;53.70;32.40;;;11.20;99.90;12.60;96654.00;;;;5008560;28;20256;-70
2022/10/15 03:16:53;;;;;;;47.73;32.90;;;11.20;99.90;12.60;96659.00;;;;4998600;28;20217;-70
2022/10/15 03:19:42;;;;;;;50.87;31.87;;;11.30;99.90;12.50;96658.00;;;;5009059;28;20225;-70
2022/10/15 03:22:30;;;;;;;50.33;33.77;;;11.30;99.90;12.60;96656.00;;;;5004332;28;20226;-70
2022/10/15 03:25:19;;;;;;;51.53;33.83;;;11.30;99.90;12.60;96655.00;;;;5008963;28;20289;-70
2022/10/15 03:28:08;;;;;;;48.60;33.17;;;11.30;99.90;12.70;96652.00;;;;5005991;28;20269;-70
2022/10/15 03:30:58;;;;;;;48.23;31.77;;;11.30;99.90;12.60;96646.00;;;;5007933;28;20225;-70
2022/10/15 03:33:47;;;;;;;45.70;29.63;;;11.30;99.90;12.70;96656.00;;;;5009766;28;20629;-70
2022/10/15 03:36:36;;;;;;;45.73;30.97;;;11.30;99.90;12.70;96646.00;;;;5002492;28;20233;-70
2022/10/15 03:39:24;;;;;;;47.73;32.13;;;11.30;99.90;12.50;96655.00;;;;5007550;28;20218;-70
2022/10/15 03:42:13;;;;;;;49.93;30.20;;;11.30;99.90;12.20;96656.00;;;;5009169;28;20836;-70
2022/10/15 03:45:02;;;;;;;52.30;33.87;;;11.20;99.90;12.30;96655.00;;;;5010236;28;20233;-70
2022/10/15 03:47:52;;;;;;;49.73;31.50;;;11.20;99.90;12.50;96657.00;;;;4999691;28;20202;-70
2022/10/15 03:50:41;;;;;;;49.80;33.87;;;11.20;99.90;12.50;96650.00;;;;5008898;28;20759;-70
2022/10/15 03:53:30;;;;;;;62.47;33.87;;;11.20;99.90;12.40;96652.00;;;;5008906;28;20198;-70
2022/10/15 03:56:19;;;;;;;55.77;33.70;;;11.20;99.90;12.20;96647.00;;;;5009252;28;20241;-70
2022/10/15 03:59:07;;;;;;;55.80;34.20;;;11.10;99.90;12.30;96658.00;;;;5009096;28;20275;-70
2022/10/15 04:01:56;;;;;;;46.37;30.33;;;11.10;99.90;12.30;96656.00;;;;5009348;28;20777;-70
2022/10/15 04:04:46;;;;;;;45.63;31.37;;;11.10;99.90;12.30;96660.00;;;;5009055;28;20677;-70
2022/10/15 04:07:35;;;;;;;46.90;32.33;;;11.10;99.90;12.20;96658.00;;;;5000906;28;20194;-70
2022/10/15 04:10:24;;;;;;;51.30;33.47;;;11.00;99.90;12.20;96667.00;;;;4997926;28;20230;-70
2022/10/15 04:13:13;;;;;;;50.40;33.70;;;11.00;99.90;12.20;96662.00;;;;5007700;28;20276;-70
2022/10/15 04:16:05;;;;;;;47.80;32.47;;;11.00;99.90;12.20;96660.00;;;;5008878;28;20701;-70
2022/10/15 04:18:53;;;;;;;49.77;32.73;;;11.00;99.90;12.10;96659.00;;;;5009172;28;20261;-70
2022/10/15 04:21:43;;;;;;;47.30;32.17;;;11.00;99.90;12.20;96660.00;;;;5008862;28;20229;-70
2022/10/15 04:24:32;;;;;;;62.00;39.37;;;11.00;99.90;12.20;96658.00;;;;5009814;28;20744;-70
2022/10/15 04:27:21;;;;;;;49.57;33.03;;;11.00;99.90;12.30;96661.00;;;;5008600;28;20288;-70
2022/10/15 04:30:12;;;;;;;54.40;36.23;;;11.00;99.90;12.40;96664.00;;;;5011549;28;20272;-70
2022/10/15 04:33:01;;;;;;;48.67;33.70;;;11.00;99.90;12.50;96659.00;;;;5008072;28;20206;-70
2022/10/15 04:35:59;;;;;;;53.27;35.63;;;11.00;99.90;12.50;96674.00;;;;5012307;28;20205;-70
2022/10/15 04:38:50;;;;;;;48.63;33.80;;;11.10;99.90;12.30;96660.00;;;;5008184;28;20234;-70
2022/10/15 04:41:38;;;;;;;52.67;34.07;;;11.10;99.90;12.40;96653.00;;;;5013037;28;20234;-70
2022/10/15 04:44:27;;;;;;;50.50;33.43;;;11.10;99.90;12.30;96657.00;;;;5012651;28;20213;-70
2022/10/15 04:47:16;;;;;;;47.80;31.87;;;11.10;99.90;12.10;96653.00;;;;5012328;28;20198;-70
2022/10/15 04:50:05;;;;;;;51.90;33.27;;;11.10;99.90;12.20;96664.00;;;;5011816;28;20225;-70
2022/10/15 04:52:54;;;;;;;52.57;33.17;;;11.00;99.90;12.20;96668.00;;;;5012458;28;20205;-71
2022/10/15 04:55:44;;;;;;;54.37;34.20;;;11.00;99.90;12.50;96667.00;;;;5011255;28;20256;-70
2022/10/15 04:58:34;;;;;;;52.57;33.40;;;11.10;99.90;12.50;96661.00;;;;5008860;28;20248;-70
2022/10/15 05:01:22;;;;;;;56.53;33.97;;;11.10;99.90;12.30;96657.00;;;;5011791;28;20730;-70
2022/10/15 05:04:12;;;;;;;58.47;35.00;;;11.10;99.90;12.30;96652.00;;;;5009694;28;20277;-70
2022/10/15 05:07:00;;;;;;;47.50;32.77;;;11.10;99.90;12.40;96657.00;;;;5012605;28;20732;-70
2022/10/15 05:09:49;;;;;;;50.23;33.17;;;11.10;99.90;12.60;96654.00;;;;5009263;28;20202;-70
2022/10/15 05:12:39;;;;;;;50.23;32.80;;;11.10;99.90;12.50;96656.00;;;;5010372;28;20364;-70
2022/10/15 05:15:33;;;;;;;57.37;33.93;;;11.20;99.90;12.60;96652.00;;;;5004944;28;20244;-70
2022/10/15 05:18:21;;;;;;;48.97;31.40;;;11.20;99.90;12.50;96650.00;;;;5010607;28;20198;-70
2022/10/15 05:21:11;;;;;;;46.93;29.33;;;11.20;99.90;12.30;96647.00;;;;5012125;28;20305;-70
2022/10/15 05:24:01;;;;;;;51.73;34.63;;;11.20;99.90;12.40;96651.00;;;;5011914;28;20206;-70
2022/10/15 05:26:50;;;;;;;56.83;34.03;;;11.20;99.90;12.20;96655.00;;;;5007958;28;20685;-69
2022/10/15 05:29:40;;;;;;;47.17;33.00;;;11.10;99.90;12.40;96655.00;;;;5009995;28;20220;-69
2022/10/15 05:32:28;;;;;;;49.53;33.03;;;11.10;99.90;12.60;96653.00;;;;5010610;28;20241;-70
2022/10/15 05:35:17;;;;;;;51.53;32.63;;;11.10;99.90;12.40;96646.00;;;;5011299;28;20217;-69
2022/10/15 05:38:06;;;;;;;49.70;35.13;;;11.20;99.90;12.50;96650.00;;;;5006285;28;20230;-69
2022/10/15 05:40:55;;;;;;;51.30;34.17;;;11.20;99.90;12.30;96648.00;;;;5008541;28;20261;-70
2022/10/15 05:43:46;;;;;;;51.93;33.43;;;11.20;99.90;12.30;96650.00;;;;5010383;28;20293;-69
2022/10/15 05:46:36;;;;;;;52.87;33.30;;;11.10;99.90;12.20;96652.00;;;;5008224;28;20232;-69
2022/10/15 05:49:25;;;;;;;47.67;31.83;;;11.10;99.90;12.30;96654.00;;;;5008898;28;20320;-70
2022/10/15 05:52:14;;;;;;;49.17;34.23;;;11.10;99.90;12.30;96652.00;;;;5010414;28;20206;-70
2022/10/15 05:55:03;;;;;;;53.40;34.73;;;11.10;99.90;12.40;96652.00;;;;5009215;28;20199;-70
2022/10/15 05:57:52;;;;;;;48.40;33.50;;;11.10;99.90;12.30;96652.00;;;;5007599;28;20720;-70
2022/10/15 06:00:41;;;;;;;57.90;36.10;;;11.10;99.90;12.50;96659.00;;;;5009355;28;20217;-70
2022/10/15 06:03:31;;;;;;;55.23;33.77;;;11.10;99.90;12.40;96649.00;;;;5008184;28;20198;-70
2022/10/15 06:06:22;;;;;;;54.53;36.10;;;11.20;99.90;12.40;96647.00;;;;5008424;28;20829;-70
2022/10/15 06:09:11;;;;;;;45.50;31.70;;;11.20;99.90;12.50;96651.00;;;;5007806;28;20621;-70
2022/10/15 06:11:59;;;;;;;59.60;35.07;;;11.20;99.90;12.40;96660.00;;;;5009907;28;20701;-70
2022/10/15 06:14:48;;;;;;;50.80;33.63;;;11.20;99.90;12.50;96657.00;;;;5007221;28;20290;-70
2022/10/15 06:17:37;;;;;;;48.50;31.30;;;11.20;99.90;12.70;96650.00;;;;5008448;28;20265;-70
2022/10/15 06:20:27;;;;;;;50.50;33.70;;;11.30;99.90;12.90;96656.00;;;;5009750;28;20299;-70
2022/10/15 06:23:16;;;;;;;45.90;31.47;;;11.30;99.90;12.90;96666.00;;;;5002581;28;20198;-70
2022/10/15 06:26:07;;;;;;;54.53;34.97;;;11.40;99.90;13.00;96669.00;;;;5010939;28;20202;-70
2022/10/15 06:28:58;;;;;;;49.00;32.43;;;11.40;99.90;12.80;96674.00;;;;5004934;28;20737;-69
2022/10/15 06:31:46;;;;;;;49.17;33.73;;;11.50;99.90;12.60;96669.00;;;;5010142;28;20233;-70
2022/10/15 06:34:35;;;;;;;55.17;33.43;;;11.50;99.90;12.70;96672.00;;;;5005191;28;20195;-69
2022/10/15 06:37:25;;;;;;;52.83;33.93;;;11.50;99.90;12.90;96670.00;;;;5009050;28;20264;-70
2022/10/15 06:40:15;;;;;;;47.17;32.13;;;11.50;99.90;12.90;96681.00;;;;5006690;28;20283;-70
2022/10/15 06:43:06;;;;;;;54.00;34.33;;;11.50;99.90;13.00;96683.00;;;;5008802;28;20221;-70
2022/10/15 06:45:55;;;;;;;48.00;32.93;;;11.50;99.90;13.20;96679.00;;;;5000911;28;20214;-70
2022/10/15 06:48:44;;;;;;;53.43;35.07;;;11.60;99.90;13.40;96678.00;;;;5009202;28;20572;-70
2022/10/15 06:51:32;;;;;;;55.40;34.63;;;11.70;99.90;13.50;96683.00;;;;5003273;28;20260;-70
2022/10/15 06:54:23;;;;;;;51.37;34.03;;;11.80;99.90;13.50;96686.00;;;;5006801;28;20205;-70
2022/10/15 06:57:12;;;;;;;53.77;35.40;;;11.80;99.90;13.50;96688.00;;;;5008526;28;20213;-70
2022/10/15 07:00:01;;;;;;;52.63;34.87;;;11.90;99.90;13.40;96679.00;;;;5005188;28;20634;-70
2022/10/15 07:02:50;;;;;;;45.53;33.10;;;11.90;99.90;13.50;96700.00;;;;5006399;28;20206;-70
2022/10/15 07:05:39;;;;;;;52.40;33.80;;;12.00;99.90;13.50;96693.00;;;;5003736;28;20214;-70
2022/10/15 07:08:27;;;;;;;54.47;33.97;;;12.00;99.90;13.60;96696.00;;;;5006987;28;20201;-69
2022/10/15 07:11:18;;;;;;;48.17;33.27;;;12.00;99.90;13.70;96704.00;;;;5006462;28;20237;-70
2022/10/15 07:14:07;;;;;;;55.13;34.23;;;12.10;99.90;13.80;96708.00;;;;5006362;28;20688;-70
2022/10/15 07:16:55;;;;;;;54.30;33.53;;;12.20;99.90;13.80;96725.00;;;;5007644;28;20214;-70
2022/10/15 07:19:44;;;;;;;51.47;34.57;;;12.20;99.90;13.70;96708.00;;;;5002571;28;20213;-69
2022/10/15 07:22:33;;;;;;;48.93;32.93;;;12.20;99.90;13.80;96720.00;;;;5008138;28;20280;-70
2022/10/15 07:25:22;;;;;;;46.83;34.73;;;12.20;99.90;13.90;96720.00;;;;5005804;28;20209;-70
2022/10/15 07:28:12;;;;;;;50.97;33.27;;;12.30;99.90;13.90;96725.00;;;;5012254;28;20713;-70
2022/10/15 07:31:02;;;;;;;52.00;34.23;;;12.30;99.90;13.90;96726.00;;;;5015077;28;20236;-70
2022/10/15 07:33:51;;;;;;;52.93;35.57;;;12.40;99.90;13.90;96726.00;;;;5008162;28;20206;-70
2022/10/15 07:36:40;;;;;;;53.50;34.20;;;12.40;99.90;14.00;96733.00;;;;5005551;28;20229;-70
2022/10/15 07:39:28;;;;;;;58.53;36.67;;;12.40;99.90;14.00;96724.00;;;;5008772;28;20206;-69
2022/10/15 07:42:17;;;;;;;47.23;33.53;;;12.50;99.90;14.00;96722.00;;;;5008149;28;20212;-70
2022/10/15 07:45:09;;;;;;;47.43;34.33;;;12.50;99.90;14.10;96718.00;;;;5009578;28;20197;-69
2022/10/15 07:47:57;;;;;;;45.13;32.93;;;12.50;99.90;14.20;96716.00;;;;5008653;28;20209;-69
2022/10/15 07:50:46;;;;;;;52.37;33.40;;;12.60;99.90;14.20;96714.00;;;;5007574;28;20238;-69
2022/10/15 07:53:35;;;;;;;47.47;32.90;;;12.60;99.90;14.30;96713.00;;;;5005668;28;20341;-69
2022/10/15 07:56:24;;;;;;;53.37;36.53;;;12.60;99.90;14.30;96710.00;;;;5008617;28;20206;-69
2022/10/15 07:59:12;;;;;;;55.53;35.27;;;12.70;99.90;14.30;96713.00;;;;5008202;28;20198;-69
2022/10/15 08:02:03;;;;;;;54.40;35.97;;;12.70;99.90;14.30;96711.00;;;;5008876;28;20265;-69
2022/10/15 08:04:51;;;;;;;52.33;35.87;;;12.80;99.90;14.20;96708.00;;;;5013273;28;20237;-69
2022/10/15 08:07:40;;;;;;;48.90;35.00;;;12.80;99.90;14.20;96712.00;;;;5011576;28;20202;-69
2022/10/15 08:10:29;;;;;;;49.90;32.70;;;12.80;99.90;14.20;96713.00;;;;5008642;28;20248;-69
2022/10/15 08:13:18;;;;;;;55.87;35.43;;;12.80;99.90;14.00;96719.00;;;;5015334;28;20542;-69
2022/10/15 08:16:08;;;;;;;50.87;36.10;;;12.80;99.90;14.00;96714.00;;;;5011335;28;20206;-69
2022/10/15 08:18:58;;;;;;;49.77;32.60;;;12.80;99.90;14.00;96707.00;;;;5003875;28;20296;-69
2022/10/15 08:21:47;;;;;;;48.37;32.37;;;12.80;99.90;14.20;96717.00;;;;5010500;28;20240;-69
2022/10/15 08:24:36;;;;;;;49.93;34.97;;;12.80;99.90;14.40;96703.00;;;;5013471;28;20229;-69
2022/10/15 08:27:24;;;;;;;49.83;33.93;;;12.80;99.90;14.60;96704.00;;;;5013336;28;20221;-69
2022/10/15 08:30:13;;;;;;;45.37;31.87;;;12.90;99.90;14.60;96707.00;;;;5010892;28;20283;-69
2022/10/15 08:33:02;;;;;;;47.70;33.27;;;13.00;99.90;14.60;96713.00;;;;5014984;28;21486;-70
2022/10/15 08:35:52;;;;;;;45.00;30.43;;;13.10;99.90;14.70;96722.00;;;;5012006;28;20289;-69
2022/10/15 08:38:41;;;;;;;45.47;32.03;;;13.20;99.90;14.80;96728.00;;;;5006106;28;20227;-69
2022/10/15 08:41:36;;;;;;;47.23;31.43;;;13.20;99.90;15.00;96725.00;;;;5012602;28;20728;-69
2022/10/15 08:44:28;;;;;;;46.80;32.60;;;13.30;99.90;15.00;96724.00;;;;5014554;28;20197;-70
2022/10/15 08:47:31;;;;;;;43.83;32.20;;;13.30;99.90;14.90;96727.00;;;;5015857;28;20665;-70
2022/10/15 08:50:28;;;;;;;46.20;32.00;;;13.40;99.90;15.20;96724.00;;;;5004413;28;20233;-69
2022/10/15 08:53:21;;;;;;;46.77;32.73;;;13.40;99.90;15.20;96720.00;;;;5013822;28;20202;-69
2022/10/15 08:56:17;;;;;;;41.13;30.40;;;13.50;99.90;15.40;96724.00;;;;5015428;28;20198;-69
2022/10/15 08:59:18;;;;;;;50.77;33.87;;;13.60;99.90;15.50;96720.00;;;;5011513;28;20198;-69
2022/10/15 09:02:17;;;;;;;50.40;35.33;;;13.70;99.90;15.60;96714.00;;;;5015018;28;20228;-70
2022/10/15 09:05:27;;;;;;;43.77;34.37;;;13.80;99.90;15.90;96719.00;;;;5012665;28;20202;-70
2022/10/15 09:08:28;;;;;;;55.13;36.50;;;13.90;99.90;15.90;96723.00;;;;5011389;28;20190;-70
2022/10/15 09:11:30;;;;;;;50.17;35.00;;;14.10;99.90;15.90;96732.00;;;;5010433;28;20220;-70
2022/10/15 09:14:25;;;;;;;46.67;34.70;;;14.10;99.90;15.90;96726.00;;;;5010045;28;20208;-69
2022/10/15 09:17:21;;;;;;;47.30;33.25;;;14.20;99.90;15.90;96730.00;;;;5007845;28;20206;-70
2022/10/15 09:20:17;;;;;;;43.60;32.87;;;14.20;99.90;15.70;96727.00;;;;5005745;28;20469;-70
2022/10/15 09:23:18;;;;;;;46.63;34.00;;;14.20;99.90;16.00;96730.00;;;;5009804;28;20272;-70
2022/10/15 09:26:24;;;;;;;49.90;33.37;;;14.30;99.90;16.10;96728.00;;;;5009541;28;20301;-69
2022/10/15 09:29:21;;;;;;;48.10;32.50;;;14.30;99.90;16.10;96732.00;;;;5009454;28;20201;-70
2022/10/15 09:32:20;;;;;;;43.90;33.37;;;14.40;99.90;16.00;96729.00;;;;5009970;28;20256;-70
2022/10/15 09:35:17;;;;;;;51.60;35.60;;;14.40;99.90;16.00;96718.00;;;;5010973;28;20241;-69
2022/10/15 09:38:25;;;;;;;45.97;34.30;;;14.50;99.90;16.30;96728.00;;;;5009454;28;20201;-70
2022/10/15 09:41:29;;;;;;;53.23;35.40;;;14.50;99.90;16.40;96726.00;;;;5007514;28;20256;-70
2022/10/15 09:44:18;;;;;;;47.40;35.07;;;14.60;99.90;16.40;96724.00;;;;5009553;28;20244;-70
2022/10/15 09:47:17;;;;;;;51.67;34.80;;;14.70;99.90;16.50;96722.00;;;;5009707;28;20198;-69
2022/10/15 09:50:09;;;;;;;47.30;36.03;;;14.70;99.90;16.50;96731.00;;;;5006691;28;20217;-70
2022/10/15 09:53:12;;;;;;;47.97;34.57;;;14.80;99.90;16.40;96730.00;;;;5007750;28;20206;-69
2022/10/15 09:56:10;;;;;;;43.53;30.90;;;14.80;99.90;16.60;96733.00;;;;5000203;28;20217;-69
2022/10/15 09:59:00;;;;;;;46.33;31.67;;;14.90;99.90;16.70;96734.00;;;;5008225;28;20206;-69
2022/10/15 10:01:58;;;;;;;48.80;33.97;;;15.00;99.90;16.60;96747.00;;;;5009347;28;20764;-70
2022/10/15 10:04:47;;;;;;;49.80;34.23;;;15.00;99.90;16.60;96741.00;;;;5004887;28;20206;-70
2022/10/15 10:07:40;;;;;;;47.13;32.10;;;15.00;99.90;16.80;96746.00;;;;5010143;28;20248;-69
2022/10/15 10:10:31;;;;;;;49.93;34.27;;;15.10;99.90;16.90;96740.00;;;;5005590;28;20331;-70
2022/10/15 10:13:25;;;;;;;44.37;32.80;;;15.10;99.90;16.90;96743.00;;;;5003819;28;20890;-70
2022/10/15 10:16:19;;;;;;;54.40;36.10;;;15.20;99.90;17.20;96731.00;;;;5005999;28;20202;-70
2022/10/15 10:19:14;;;;;;;43.87;31.67;;;15.30;99.90;17.40;96726.00;;;;5006729;28;20190;-69
2022/10/15 10:22:15;;;;;;;48.10;34.93;;;15.40;99.90;17.40;96720.00;;;;5007842;28;20222;-70
2022/10/15 10:25:38;;;;;;;46.33;34.27;;;15.50;99.90;17.90;96723.00;;;;5004236;28;20209;-69
2022/10/15 10:28:33;;;;;;;45.47;33.67;;;15.70;99.90;18.10;96715.00;;;;5007412;28;20312;-70
2022/10/15 10:31:31;;;;;;;42.93;32.23;;;15.90;99.90;18.30;96717.00;;;;5006335;28;20222;-69
2022/10/15 10:34:30;;;;;;;46.93;31.50;;;16.10;99.90;18.50;96720.00;;;;5009817;28;20235;-69
2022/10/15 10:37:19;;;;;;;44.00;32.00;;;16.30;99.90;18.40;96716.00;;;;5005518;28;20209;-69
2022/10/15 10:40:25;;;;;;;45.53;32.20;;;16.40;99.90;18.00;96723.00;;;;5005934;28;20225;-70
2022/10/15 10:43:26;;;;;;;39.80;29.80;;;16.40;99.90;18.00;96727.00;;;;5005779;28;20268;-70
2022/10/15 10:46:19;;;;;;;39.60;29.13;;;16.40;99.90;18.10;96722.00;;;;5007568;28;20220;-69
2022/10/15 10:49:09;;;;;;;39.53;29.90;;;16.40;99.90;18.10;96721.00;;;;5005633;28;20652;-69
2022/10/15 10:51:58;;;;;;;39.93;28.30;;;16.40;99.90;18.30;96724.00;;;;5006983;28;20602;-70
2022/10/15 10:54:48;;;;;;;38.00;27.47;;;16.50;99.90;18.10;96729.00;;;;5009226;28;20241;-70
2022/10/15 10:57:44;;;;;;;39.40;28.53;;;16.50;99.90;18.10;96730.00;;;;4999228;28;20202;-69
2022/10/15 11:00:40;;;;;;;43.97;29.57;;;16.50;99.90;18.20;96729.00;;;;5003661;28;20229;-70
2022/10/15 11:03:35;;;;;;;43.87;31.67;;;16.40;99.90;18.50;96716.00;;;;5005819;28;20234;-69
2022/10/15 11:06:53;;;;;;;39.27;29.30;;;16.50;99.90;18.90;96708.00;;;;5007034;28;20681;-70
2022/10/15 11:09:53;;;;;;;41.50;30.30;;;16.70;99.90;19.10;96699.00;;;;5003281;28;20895;-69
2022/10/15 11:13:03;;;;;;;36.80;29.20;;;16.90;99.90;19.30;96719.00;;;;5001746;28;20195;-70
2022/10/15 11:15:59;;;;;;;38.80;28.43;;;17.10;99.90;19.10;96719.00;;;;5009979;28;20205;-69
2022/10/15 11:19:04;;;;;;;35.30;27.47;;;17.20;99.90;19.10;96707.00;;;;5004478;28;20358;-69
2022/10/15 11:22:24;;;;;;;37.63;28.90;;;17.20;99.90;19.20;96718.00;;;;5006477;28;20277;-69
2022/10/15 11:25:23;;;;;;;35.37;27.83;;;17.30;99.90;19.30;96710.00;;;;5004761;28;20693;-69
2022/10/15 11:28:30;;;;;;;41.27;30.60;;;17.30;99.90;19.10;96719.00;;;;5006262;28;20272;-69
2022/10/15 11:31:31;;;;;;;36.00;29.00;;;17.40;99.90;19.00;96721.00;;;;5002068;28;20213;-69
2022/10/15 11:34:33;;;;;;;38.60;30.23;;;17.30;99.90;18.90;96711.00;;;;5006062;28;20198;-70
2022/10/15 11:37:37;;;;;;;39.80;30.73;;;17.30;99.90;18.90;96715.00;;;;5006712;28;20201;-69
2022/10/15 11:40:35;;;;;;;48.17;32.57;;;17.20;99.90;18.80;96714.00;;;;5007857;28;20221;-70
2022/10/15 11:43:43;;;;;;;47.67;34.77;;;17.10;99.90;18.80;96711.00;;;;5009153;28;20752;-70
2022/10/15 11:46:40;;;;;;;44.60;34.13;;;17.10;99.90;18.70;96708.00;;;;5005610;28;20209;-70
2022/10/15 11:49:43;;;;;;;46.87;33.90;;;17.10;99.90;18.80;96708.00;;;;5007143;28;20816;-69
2022/10/15 11:52:54;;;;;;;42.67;32.90;;;17.10;99.90;18.80;96717.00;;;;5005347;28;20201;-70
2022/10/15 11:55:48;;;;;;;42.77;32.97;;;17.10;99.90;18.80;96713.00;;;;5007281;28;20265;-70
2022/10/15 11:58:42;;;;;;;43.73;31.87;;;17.00;99.90;18.80;96721.00;;;;5005084;28;20214;-70
2022/10/15 12:01:37;;;;;;;44.93;32.87;;;17.00;99.90;18.70;96719.00;;;;5006291;28;20229;-70
2022/10/15 12:04:36;;;;;;;44.30;33.30;;;17.00;99.90;18.80;96721.00;;;;5009859;28;20260;-70
2022/10/15 12:07:30;;;;;;;45.13;33.33;;;17.00;99.90;18.70;96715.00;;;;5003642;28;20215;-70
2022/10/15 12:10:39;;;;;;;39.90;30.73;;;17.00;99.90;18.80;96723.00;;;;5008879;28;20228;-70
2022/10/15 12:13:37;;;;;;;43.13;30.63;;;17.00;99.90;18.90;96718.00;;;;5009049;28;20206;-70
2022/10/15 12:16:35;;;;;;;43.33;31.67;;;17.00;99.90;18.80;96706.00;;;;5006589;28;20209;-70
2022/10/15 12:19:28;;;;;;;40.63;29.93;;;17.10;99.90;19.00;96706.00;;;;5005933;28;20214;-69
2022/10/15 12:22:33;;;;;;;44.33;31.87;;;17.10;99.90;19.10;96719.00;;;;5007779;28;20210;-69
2022/10/15 12:25:46;;;;;;;41.53;32.03;;;17.10;99.90;19.10;96716.00;;;;5007528;28;20208;-69
2022/10/15 12:28:35;;;;;;;37.80;28.00;;;17.20;99.90;19.10;96715.00;;;;5000895;28;20208;-69
2022/10/15 12:31:24;;;;;;;36.53;28.77;;;17.20;99.90;19.10;96712.00;;;;5006174;28;20760;-69